createdAt,value
2023-04-25T00:01:06.971Z,7.95
2023-04-25T00:05:09.375Z,7.90
2023-04-25T00:09:12.092Z,7.91
2023-04-25T00:13:14.645Z,7.91
2023-04-25T00:17:17.721Z,7.92
2023-04-25T00:21:20.911Z,7.92
2023-04-25T00:25:22.561Z,7.93
2023-04-25T00:29:24.190Z,7.93
2023-04-25T00:33:26.203Z,7.92
2023-04-25T00:37:28.639Z,7.92
2023-04-25T00:41:31.342Z,7.97
2023-04-25T00:45:33.784Z,7.98
2023-04-25T00:49:37.611Z,8.03
2023-04-25T00:53:39.652Z,8.06
2023-04-25T00:57:41.795Z,8.06
2023-04-25T01:01:45.359Z,8.01
2023-04-25T01:05:47.829Z,8.01
2023-04-25T01:09:49.652Z,8.04
2023-04-25T01:13:51.596Z,8.08
2023-04-25T01:17:56.526Z,8.09
2023-04-25T01:21:58.408Z,8.09
2023-04-25T01:26:00.388Z,8.06
2023-04-25T01:30:02.696Z,8.10
2023-04-25T01:34:07.064Z,8.12
2023-04-25T01:38:08.877Z,8.12
2023-04-25T01:42:10.776Z,8.11
2023-04-25T01:46:13.542Z,8.10
2023-04-25T01:50:16.631Z,8.08
2023-04-25T01:54:19.748Z,8.11
2023-04-25T01:58:22.006Z,8.08
2023-04-25T02:02:42.857Z,8.11
2023-04-25T02:07:10.886Z,8.12
2023-04-25T02:11:24.147Z,8.08
2023-04-25T02:15:49.915Z,8.04
2023-04-25T02:19:55.624Z,8.05
2023-04-25T02:23:57.805Z,8.03
2023-04-25T02:27:59.481Z,8.00
2023-04-25T02:32:01.178Z,7.95
2023-04-25T02:36:02.946Z,7.88
2023-04-25T02:40:05.533Z,7.85
2023-04-25T02:44:07.268Z,7.78
2023-04-25T02:48:08.999Z,7.73
2023-04-25T02:52:11.056Z,7.69
2023-04-25T02:56:12.845Z,7.67
2023-04-25T03:00:15.602Z,7.64
2023-04-25T03:04:17.495Z,7.68
2023-04-25T03:08:19.609Z,7.68
2023-04-25T03:12:21.396Z,7.69
2023-04-25T03:16:23.516Z,7.68
2023-04-25T03:20:25.267Z,7.64
2023-04-25T03:24:28.460Z,7.65
2023-04-25T03:28:30.601Z,7.63
2023-04-25T03:32:32.713Z,7.59
2023-04-25T03:36:34.520Z,7.56
2023-04-25T03:40:37.546Z,7.54
2023-04-25T03:44:53.870Z,7.57
2023-04-25T03:48:56.544Z,7.57
2023-04-25T03:53:06.195Z,7.50
2023-04-25T03:57:28.661Z,7.53
2023-04-25T04:01:30.738Z,7.53
2023-04-25T04:05:33.859Z,7.55
2023-04-25T04:09:36.237Z,7.56
2023-04-25T04:13:42.827Z,7.60
2023-04-25T04:17:45.697Z,7.64
2023-04-25T04:21:48.750Z,7.68
2023-04-25T04:25:51.442Z,7.73
2023-04-25T04:30:17.936Z,7.69
2023-04-25T04:34:32.949Z,7.73
2023-04-25T04:38:35.209Z,7.77
2023-04-25T04:42:39.585Z,7.80
2023-04-25T04:47:01.611Z,7.81
2023-04-25T04:51:10.317Z,7.83
2023-04-25T04:55:38.589Z,7.87
2023-04-25T04:59:48.049Z,7.89
2023-04-25T05:04:11.982Z,7.91
2023-04-25T05:08:37.737Z,7.92
2023-04-25T05:13:07.050Z,7.96
2023-04-25T05:17:09.772Z,7.90
2023-04-25T05:21:35.840Z,7.84
2023-04-25T05:25:51.401Z,7.81
2023-04-25T05:30:22.071Z,7.75
2023-04-25T05:34:44.622Z,7.55
2023-04-25T05:38:57.740Z,7.46
2023-04-25T05:43:19.631Z,7.32
2023-04-25T05:51:46.029Z,7.48
2023-04-25T05:56:07.561Z,7.74
2023-04-25T06:00:12.568Z,7.93
2023-04-25T06:04:22.142Z,8.04
2023-04-25T06:08:24.556Z,8.04
2023-04-25T06:12:28.545Z,8.08
2023-04-25T06:16:34.516Z,8.19
2023-04-25T06:20:38.965Z,8.33
2023-04-25T06:24:42.561Z,8.43
2023-04-25T06:28:45.575Z,8.52
2023-04-25T06:32:52.190Z,8.47
2023-04-25T06:36:54.558Z,8.51
2023-04-25T06:40:57.827Z,8.53
2023-04-25T06:45:01.821Z,8.38
2023-04-25T06:49:09.563Z,8.40
2023-04-25T06:53:16.539Z,8.26
2023-04-25T06:57:22.593Z,8.32
2023-04-25T07:01:27.177Z,8.52
2023-04-25T07:05:29.118Z,8.73
2023-04-25T07:09:31.404Z,8.84
2023-04-25T07:13:35.561Z,9.25
2023-04-25T07:17:37.297Z,9.34
2023-04-25T07:21:39.562Z,9.34
2023-04-25T07:25:41.882Z,9.39
2023-04-25T07:29:46.199Z,9.49
2023-04-25T07:33:48.022Z,9.44
2023-04-25T07:37:52.666Z,9.44
2023-04-25T07:41:57.545Z,9.54
2023-04-25T07:46:04.686Z,9.79
2023-04-25T07:50:14.489Z,9.76
2023-04-25T07:54:20.033Z,9.62
2023-04-25T07:58:27.675Z,9.72
2023-04-25T08:02:33.850Z,9.87
2023-04-25T08:06:37.968Z,10.07
2023-04-25T08:10:51.054Z,10.25
2023-04-25T08:14:54.500Z,10.39
2023-04-25T08:18:58.565Z,10.53
2023-04-25T08:23:02.576Z,10.53
2023-04-25T08:27:29.665Z,10.69
2023-04-25T08:31:34.620Z,10.84
2023-04-25T08:35:39.524Z,10.65
2023-04-25T08:39:43.609Z,10.88
2023-04-25T08:44:11.641Z,11.12
2023-04-25T08:48:19.570Z,11.67
2023-04-25T08:52:28.720Z,12.13
2023-04-25T08:56:35.984Z,12.31
2023-04-25T09:00:40.722Z,12.28
2023-04-25T09:04:48.216Z,12.24
2023-04-25T09:08:52.702Z,11.54
2023-04-25T09:13:16.107Z,10.92
2023-04-25T09:17:45.584Z,11.11
2023-04-25T09:21:55.532Z,11.52
2023-04-25T09:25:58.180Z,11.61
2023-04-25T09:30:02.521Z,12.01
2023-04-25T09:34:27.229Z,12.44
2023-04-25T09:38:41.599Z,12.11
2023-04-25T09:42:59.447Z,12.08
2023-04-25T09:47:05.590Z,12.51
2023-04-25T09:51:14.970Z,12.35
2023-04-25T09:55:19.551Z,12.16
2023-04-25T09:59:25.882Z,11.99
2023-04-25T10:03:34.291Z,11.67
2023-04-25T10:07:49.553Z,11.52
2023-04-25T10:11:53.772Z,11.39
2023-04-25T10:15:59.574Z,11.43
2023-04-25T10:20:08.786Z,11.40
2023-04-25T10:24:13.382Z,11.51
2023-04-25T10:28:17.097Z,11.56
2023-04-25T10:32:19.174Z,11.50
2023-04-25T10:36:23.747Z,11.22
2023-04-25T10:40:26.518Z,11.47
2023-04-25T10:44:30.733Z,11.79
2023-04-25T10:48:33.951Z,11.98
2023-04-25T10:52:36.395Z,12.16
2023-04-25T10:56:40.909Z,12.45
2023-04-25T11:05:05.918Z,12.18
2023-04-25T11:09:16.529Z,12.24
2023-04-25T11:13:21.848Z,12.81
2023-04-25T11:17:26.746Z,12.94
2023-04-25T11:21:32.951Z,13.43
2023-04-25T11:25:38.629Z,13.19
2023-04-25T11:29:41.609Z,13.15
2023-04-25T11:33:46.588Z,13.50
2023-04-25T11:37:50.349Z,13.65
2023-04-25T11:41:53.565Z,13.33
2023-04-25T11:45:55.442Z,13.09
2023-04-25T11:50:01.805Z,12.91
2023-04-25T11:54:05.108Z,12.72
2023-04-25T11:58:08.586Z,12.82
2023-04-25T12:02:27.573Z,12.74
2023-04-25T12:06:29.951Z,13.00
2023-04-25T12:10:33.352Z,12.89
2023-04-25T12:14:36.962Z,12.51
2023-04-25T12:18:42.691Z,12.41
2023-04-25T12:22:49.682Z,12.40
2023-04-25T12:27:01.583Z,12.58
2023-04-25T12:31:07.918Z,12.89
2023-04-25T12:35:12.535Z,12.84
2023-04-25T12:39:18.594Z,12.53
2023-04-25T12:43:21.502Z,12.46
2023-04-25T12:47:26.121Z,12.44
2023-04-25T12:51:30.498Z,12.56
2023-04-25T12:55:35.498Z,12.54
2023-04-25T12:59:37.869Z,12.73
2023-04-25T13:03:43.729Z,12.74
2023-04-25T13:07:48.709Z,12.93
2023-04-25T13:11:52.038Z,13.27
2023-04-25T13:15:54.006Z,13.70
2023-04-25T13:19:58.134Z,13.98
2023-04-25T13:24:02.576Z,13.62
2023-04-25T13:28:07.919Z,13.53
2023-04-25T13:32:11.154Z,13.75
2023-04-25T13:36:15.299Z,13.79
2023-04-25T13:40:18.801Z,13.93
2023-04-25T13:44:21.606Z,14.19
2023-04-25T13:48:26.479Z,13.70
2023-04-25T13:52:30.434Z,13.48
2023-04-25T13:56:32.494Z,13.39
2023-04-25T14:00:38.528Z,13.19
2023-04-25T14:04:42.359Z,12.61
2023-04-25T14:08:45.514Z,12.62
2023-04-25T14:12:49.472Z,12.62
2023-04-25T14:16:55.286Z,12.64
2023-04-25T14:20:57.234Z,12.64
2023-04-25T14:25:00.929Z,12.68
2023-04-25T14:29:08.278Z,13.04
2023-04-25T14:33:14.481Z,13.42
2023-04-25T14:37:17.499Z,13.40
2023-04-25T14:41:22.817Z,13.36
2023-04-25T14:45:25.490Z,13.19
2023-04-25T14:49:27.311Z,12.72
2023-04-25T14:53:34.420Z,12.71
2023-04-25T14:57:38.024Z,12.70
2023-04-25T15:01:40.086Z,12.81
2023-04-25T15:05:42.395Z,12.85
2023-04-25T15:09:44.730Z,12.83
2023-04-25T15:13:47.080Z,12.77
2023-04-25T15:17:50.821Z,12.72
2023-04-25T15:21:53.804Z,12.72
2023-04-25T15:25:57.197Z,12.72
2023-04-25T15:29:58.990Z,12.96
2023-04-25T15:34:01.504Z,12.81
2023-04-25T15:38:04.031Z,12.69
2023-04-25T15:42:05.887Z,12.44
2023-04-25T15:46:08.122Z,12.24
2023-04-25T15:50:13.698Z,12.11
2023-04-25T15:54:15.359Z,11.92
2023-04-25T15:58:17.951Z,11.58
2023-04-25T16:02:20.797Z,11.44
2023-04-25T16:06:23.484Z,11.43
2023-04-25T16:10:27.077Z,11.71
2023-04-25T16:14:32.467Z,12.01
2023-04-25T16:18:34.192Z,12.00
2023-04-25T16:22:39.064Z,11.91
2023-04-25T16:26:41.308Z,12.06
2023-04-25T16:30:43.482Z,12.12
2023-04-25T16:34:45.857Z,12.23
2023-04-25T16:38:47.864Z,12.48
2023-04-25T16:42:49.551Z,12.66
2023-04-25T16:46:53.225Z,12.72
2023-04-25T16:50:55.954Z,12.44
2023-04-25T16:54:58.323Z,12.27
2023-04-25T16:59:01.508Z,12.51
2023-04-25T17:03:03.530Z,12.28
2023-04-25T17:07:08.071Z,12.05
2023-04-25T17:11:11.836Z,11.65
2023-04-25T17:15:14.479Z,11.55
2023-04-25T17:19:16.939Z,11.27
2023-04-25T17:23:19.346Z,11.22
2023-04-25T17:27:23.423Z,11.10
2023-04-25T17:31:26.290Z,10.87
2023-04-25T17:35:29.125Z,10.79
2023-04-25T17:39:31.474Z,10.69
2023-04-25T17:43:33.809Z,10.60
2023-04-25T17:47:35.802Z,10.53
2023-04-25T17:51:38.465Z,10.48
2023-04-25T17:55:43.956Z,10.46
2023-04-25T17:59:47.464Z,10.35
2023-04-25T18:03:51.814Z,10.24
2023-04-25T18:07:54.470Z,10.12
2023-04-25T18:11:59.523Z,10.08
2023-04-25T18:16:01.876Z,10.03
2023-04-25T18:20:07.256Z,9.96
2023-04-25T18:24:14.448Z,9.92
2023-04-25T18:28:16.133Z,9.86
2023-04-25T18:32:17.863Z,9.76
2023-04-25T18:36:19.537Z,9.70
2023-04-25T18:40:23.395Z,9.65
2023-04-25T18:44:28.387Z,9.55
2023-04-25T18:48:30.997Z,9.54
2023-04-25T18:52:33.433Z,9.40
2023-04-25T18:56:35.942Z,9.28
2023-04-25T19:00:38.552Z,9.10
2023-04-25T19:04:43.696Z,8.94
2023-04-25T19:08:46.599Z,8.83
2023-04-25T19:12:49.441Z,8.74
2023-04-25T19:16:52.980Z,8.61
2023-04-25T19:20:56.048Z,8.50
2023-04-25T19:25:09.986Z,8.36
2023-04-25T19:29:15.448Z,8.28
2023-04-25T19:33:19.427Z,8.20
2023-04-25T19:37:21.298Z,8.11
2023-04-25T19:41:23.577Z,7.99
2023-04-25T19:45:27.452Z,7.89
2023-04-25T19:49:29.166Z,7.78
2023-04-25T19:53:31.444Z,7.71
2023-04-25T19:57:34.415Z,7.60
2023-04-25T20:01:36.808Z,7.53
2023-04-25T20:05:38.785Z,7.47
2023-04-25T20:09:40.930Z,7.35
2023-04-25T20:13:42.613Z,7.22
2023-04-25T20:17:46.157Z,7.10
2023-04-25T20:21:47.995Z,6.92
2023-04-25T20:25:52.115Z,6.79
2023-04-25T20:29:54.768Z,6.71
2023-04-25T20:33:57.112Z,6.69
2023-04-25T20:37:58.938Z,6.69
2023-04-25T20:42:01.828Z,6.72
2023-04-25T20:46:04.500Z,6.77
2023-04-25T20:50:08.718Z,6.78
2023-04-25T20:54:11.146Z,6.82
2023-04-25T20:58:13.084Z,6.84
2023-04-25T21:02:16.019Z,6.85
2023-04-25T21:06:17.867Z,6.84
2023-04-25T21:10:19.954Z,6.82
2023-04-25T21:14:22.944Z,6.81
2023-04-25T21:18:25.429Z,6.79
2023-04-25T21:22:27.205Z,6.76
2023-04-25T21:26:29.131Z,6.71
2023-04-25T21:30:31.870Z,6.59
2023-04-25T21:34:33.519Z,6.46
2023-04-25T21:38:35.484Z,6.30
2023-04-25T21:42:38.402Z,6.16
2023-04-25T21:46:40.529Z,6.02
2023-04-25T21:50:42.468Z,5.88
2023-04-25T21:54:44.263Z,5.78
2023-04-25T21:58:46.190Z,5.65
2023-04-25T22:02:48.498Z,5.54
2023-04-25T22:06:50.413Z,5.45
2023-04-25T22:10:53.746Z,5.40
2023-04-25T22:14:55.429Z,5.36
2023-04-25T22:18:57.155Z,5.31
2023-04-25T22:22:58.877Z,5.25
2023-04-25T22:27:00.718Z,5.22
2023-04-25T22:31:02.818Z,5.19
2023-04-25T22:35:05.931Z,5.22
2023-04-25T22:39:08.810Z,5.28
2023-04-25T22:43:10.746Z,5.32
2023-04-25T22:47:12.511Z,5.29
2023-04-25T22:51:14.968Z,5.27
2023-04-25T22:55:16.937Z,5.22
2023-04-25T22:59:23.710Z,5.19
2023-04-25T23:03:25.961Z,5.15
2023-04-25T23:07:29.358Z,5.11
2023-04-25T23:11:31.078Z,5.06
2023-04-25T23:15:33.452Z,5.00
2023-04-25T23:19:35.168Z,4.95
2023-04-25T23:23:37.099Z,4.89
2023-04-25T23:27:38.807Z,4.80
2023-04-25T23:31:41.258Z,4.72
2023-04-25T23:35:43.060Z,4.65
2023-04-25T23:39:49.624Z,4.60
2023-04-25T23:43:51.310Z,4.56
2023-04-25T23:47:53.098Z,4.50
2023-04-25T23:51:54.790Z,4.42
2023-04-25T23:55:56.440Z,4.39
2023-04-25T23:59:58.400Z,4.36
